Terminal Aerodrome Forecast
Issued by NWS Twin Cities, MN

Home | Current Version | Previous Version | Text Only | Print | Product List | Glossary On
Versions: 1 2 3 4 5 6 7 8 9 10 11 12 13 14 15 16 17 18
000
FTUS43 KMPX 250800 AAA
TAFEAU
TAF AMD
KEAU 250805Z 2508/2606 22004KT 6SM BR FEW006 SCT020
     FM250830 VRB02KT 3SM BR BKN020
      TEMPO 2509/2513 1SM BR SCT015
     FM251400 27007KT 3SM BR BKN015
     FM251800 30012G19KT P6SM SCT020 SCT100
     FM260000 01006KT P6SM SKC=

USA.gov is the U.S. government's official web portal to all federal, state and local government web resources and services.